aviador You're here:

LTFG Decoded Metar

in
Report Time2018-06-23 04:50:00
UTC Time2018-06-23 06:01:35
Flight Rules Old
Wind150° at 04 kt
W.Decomp.*RWY 08: 1.4 kt HW 3.8 kt RCW
W.Rank150° ranks 19
Current wind is above 150° avg. (3.9)
Visibility9999 m
Phenomena:N/A
Clouds:N/A
Expected CloudBase > 2,400 ft AGL from Temp-Dew spread
CeilingNone
Temp24°C
Dew Point18°C (69% RH)
QNH1009 hPa
Raw Report
METAR LTFG 230450Z 15004KT 080V180 CAVOK 24/18 Q1009=

Extra information for LTFG:More info

Social comments